This is the latest recevied weather packets stored in our database for station/object OK2ILA-10. If no packets are shown the sender has not sent any weather packets the latest 10 day(s).
| Time | Temp. | Humidity | Pressure | Rain* | Wind** | Luminosity | Snow |
|---|---|---|---|---|---|---|---|
| 1787561491 | 23.33° C | 41% | 1023.4 hPa | - | - | - | - |
| 1787560901 | 23.89° C | 41% | 1023.4 hPa | - | - | - | - |
| 1787560891 | 23.89° C | 41% | 1023.4 hPa | - | - | - | - |
| 1787560301 | 24.44° C | 41% | 1023.4 hPa | - | - | - | - |
| 1787560290 | 24.44° C | 41% | 1023.4 hPa | - | - | - | - |
| 1787559690 | 23.33° C | 42% | 1023.5 hPa | - | - | - | - |
| 1787559101 | 22.78° C | 42% | 1023.5 hPa | - | - | - | - |
| 1787559090 | 22.78° C | 42% | 1023.5 hPa | - | - | - | - |
| 1787558500 | 24.44° C | 41% | 1023.5 hPa | - | - | - | - |
| 1787558490 | 24.44° C | 41% | 1023.5 hPa | - | - | - | - |
| 1787557900 | 22.22° C | 43% | 1023.5 hPa | - | - | - | - |
| 1787557889 | 22.22° C | 43% | 1023.5 hPa | - | - | - | - |
| 1787557289 | 22.78° C | 43% | 1023.6 hPa | - | - | - | - |
| 1787556700 | 22.22° C | 43% | 1023.6 hPa | - | - | - | - |
| 1787556689 | 22.22° C | 43% | 1023.6 hPa | - | - | - | - |
| 1787556100 | 23.33° C | 43% | 1023.6 hPa | - | - | - | - |
| 1787556089 | 23.33° C | 43% | 1023.6 hPa | - | - | - | - |
| 1787555489 | 22.22° C | 44% | 1023.5 hPa | - | - | - | - |
| 1787554900 | 22.78° C | 44% | 1023.5 hPa | - | - | - | - |
| 1787554888 | 22.78° C | 44% | 1023.5 hPa | - | - | - | - |
| 1787554300 | 21.11° C | 48% | 1023.6 hPa | - | - | - | - |
| 1787554288 | 21.11° C | 48% | 1023.6 hPa | - | - | - | - |
| 1787553688 | 16.67° C | 55% | 1023.5 hPa | - | - | - | - |
| 1787553100 | 15.56° C | 60% | 1023.5 hPa | - | - | - | - |
| 1787553088 | 15.56° C | 60% | 1023.5 hPa | - | - | - | - |
* Rain since midnight (hover to see other rain measurements)
** Current wind speed in m/s (hover to see current wind gust speed)